Time;durP1;ratioP1;P1;durP2;ratioP2;P2;SDS_P1;SDS_P2;PMS_P1;PMS_P2;Temp;Humidity;BMP_temperature;BMP_pressure;BME280_temperature;BME280_humidity;BME280_pressure;Samples;Min_cycle;Max_cycle;Signal;HPM_P1;HPM_P2
2023/08/02 00:00:54;;;;;;;11.95;3.80;;;;;;;16.22;94.58;100118.53;6101989;19;20014;-84
2023/08/02 00:03:36;;;;;;;10.18;4.13;;;;;;;16.16;95.22;100116.31;6079228;19;20018;-83
2023/08/02 00:05:47;;;;;;;10.77;3.88;;;;;;;16.13;95.10;100095.34;6080034;19;20014;-84
2023/08/02 00:07:59;;;;;;;7.68;3.13;;;;;;;16.14;94.93;100086.44;6084443;19;20520;-86
2023/08/02 00:10:13;;;;;;;9.05;3.20;;;;;;;16.13;94.89;100090.91;6098159;19;20027;-86
2023/08/02 00:12:31;;;;;;;11.95;3.65;;;;;;;16.06;94.99;100094.13;6096950;19;20090;-86
2023/08/02 00:14:39;;;;;;;7.53;3.35;;;;;;;16.05;95.41;100093.28;6078253;19;20507;-85
2023/08/02 00:16:57;;;;;;;9.23;3.00;;;;;;;16.10;95.25;100088.47;6074089;19;20009;-85
2023/08/02 00:19:21;;;;;;;7.88;3.50;;;;;;;16.08;95.36;100101.00;6078210;19;20010;-84
2023/08/02 00:21:33;;;;;;;6.47;3.10;;;;;;;16.12;95.00;100089.22;6097733;19;20455;-85
2023/08/02 00:23:47;;;;;;;8.38;3.22;;;;;;;16.12;95.66;100091.88;6056866;19;20042;-85
2023/08/02 00:26:05;;;;;;;13.32;3.55;;;;;;;16.07;96.05;100083.41;6087651;19;20102;-86
2023/08/02 00:28:34;;;;;;;12.32;3.40;;;;;;;16.15;95.90;100099.59;6058861;19;20289;-85
2023/08/02 00:30:50;;;;;;;7.60;3.25;;;;;;;16.13;96.00;100090.91;6071253;19;20036;-84
2023/08/02 00:33:20;;;;;;;;;;;;;;;;;;;;;
2023/08/02 00:35:48;;;;;;;9.95;3.13;;;;;;;16.21;96.21;100071.75;6060478;19;20449;-86
2023/08/02 00:38:06;;;;;;;8.35;3.03;;;;;;;16.20;96.36;100070.91;6085504;19;20076;-86
2023/08/02 00:40:39;;;;;;;9.85;3.42;;;;;;;16.21;96.28;100069.94;6051741;19;20006;-84
2023/08/02 00:43:01;;;;;;;13.43;3.38;;;;;;;16.26;96.41;100074.06;6059408;19;20351;-83
2023/08/02 00:45:25;;;;;;;8.75;3.47;;;;;;;16.29;96.48;100071.19;6062624;19;20011;-84
2023/08/02 00:47:45;;;;;;;12.20;4.35;;;;;;;16.24;96.68;100066.22;6091876;19;20040;-84
2023/08/02 00:50:11;;;;;;;9.00;3.10;;;;;;;16.32;96.53;100078.88;6066982;19;20030;-84
2023/08/02 00:52:29;;;;;;;10.30;3.63;;;;;;;16.34;96.65;100082.28;6078291;19;20007;-84
2023/08/02 00:54:42;;;;;;;8.40;4.10;;;;;;;16.30;96.69;100078.16;6075156;19;20007;-82
2023/08/02 00:56:53;;;;;;;10.18;3.92;;;;;;;16.31;96.94;100074.56;6068522;19;20025;-81
2023/08/02 00:59:11;;;;;;;10.60;3.38;;;;;;;16.28;97.04;100072.16;6051588;19;20288;-83
2023/08/02 01:01:37;;;;;;;10.10;3.63;;;;;;;16.30;97.16;100060.47;6053735;19;20008;-83
2023/08/02 01:04:06;;;;;;;9.30;3.58;;;;;;;16.26;96.56;100052.84;6059072;19;20134;-82
2023/08/02 01:06:46;;;;;;;8.40;3.13;;;;;;;16.34;96.41;100048.66;6064344;19;20017;-82
2023/08/02 01:09:16;;;;;;;10.95;3.03;;;;;;;16.28;96.70;100049.13;6052075;19;20014;-82
2023/08/02 01:11:35;;;;;;;6.65;2.67;;;;;;;16.25;96.79;100038.75;6073544;19;21315;-82
2023/08/02 01:13:53;;;;;;;11.48;3.53;;;;;;;16.23;96.87;100041.53;6064802;19;20024;-83
2023/08/02 01:16:18;;;;;;;10.73;3.72;;;;;;;16.17;96.97;100035.84;6074020;19;20043;-82
2023/08/02 01:21:19;;;;;;;11.07;3.13;;;;;;;16.14;97.64;100049.31;6084663;19;20007;-69
2023/08/02 01:23:24;;;;;;;8.85;4.00;;;;;;;16.14;97.88;100050.19;6104520;19;20474;-69
2023/08/02 01:25:34;;;;;;;12.48;4.20;;;;;;;16.14;98.13;100049.31;6104490;19;20010;-69
2023/08/02 01:27:54;;;;;;;10.75;3.67;;;;;;;16.11;98.16;100037.16;6102135;19;20017;-72
2023/08/02 01:30:02;;;;;;;8.98;3.50;;;;;;;16.19;98.24;100026.81;6100875;19;20014;-72
2023/08/02 01:32:09;;;;;;;10.50;4.50;;;;;;;16.23;97.96;100028.25;6098825;19;19998;-68
2023/08/02 01:34:14;;;;;;;8.80;3.55;;;;;;;16.18;97.99;100025.13;6098728;19;20027;-71
2023/08/02 01:36:23;;;;;;;12.77;4.47;;;;;;;16.16;98.21;100015.59;6092872;19;20002;-70
2023/08/02 01:38:28;;;;;;;12.27;3.80;;;;;;;16.10;98.38;100022.22;6098824;19;20102;-71
2023/08/02 01:40:33;;;;;;;10.98;4.03;;;;;;;16.10;98.81;100011.63;6095258;19;20070;-70
2023/08/02 01:42:38;;;;;;;10.52;4.03;;;;;;;16.13;98.40;100013.19;6097688;19;20014;-71
2023/08/02 01:44:43;;;;;;;13.32;4.40;;;;;;;16.09;98.52;100004.63;6097086;19;20007;-69
2023/08/02 01:46:48;;;;;;;9.90;3.70;;;;;;;16.04;98.72;99996.19;6098754;19;20038;-72
2023/08/02 01:48:53;;;;;;;10.90;4.20;;;;;;;16.01;98.75;99986.69;6095149;19;20006;-70
2023/08/02 01:50:58;;;;;;;12.88;4.10;;;;;;;16.03;98.39;99983.88;6092591;19;20372;-71
2023/08/02 01:53:08;;;;;;;12.80;4.07;;;;;;;15.93;99.01;99977.59;6081056;19;20011;-69
2023/08/02 01:55:16;;;;;;;12.55;3.90;;;;;;;15.95;99.21;99970.38;6097511;19;20043;-71
2023/08/02 01:57:21;;;;;;;13.52;4.05;;;;;;;15.90;99.02;99972.53;6099158;19;20023;-71
2023/08/02 01:59:26;;;;;;;15.15;5.18;;;;;;;15.86;99.22;99968.47;6097572;19;20018;-70
2023/08/02 02:01:31;;;;;;;14.30;3.90;;;;;;;15.89;99.11;99955.81;6092565;19;20010;-71
2023/08/02 02:03:36;;;;;;;12.05;4.18;;;;;;;15.86;99.28;99949.91;6094239;19;20431;-71
2023/08/02 02:05:52;;;;;;;11.43;3.78;;;;;;;15.82;99.42;99941.34;6088426;19;19999;-71
2023/08/02 02:08:00;;;;;;;10.90;3.95;;;;;;;15.82;99.44;99940.50;6090396;19;20500;-70
2023/08/02 02:10:08;;;;;;;10.98;3.55;;;;;;;15.78;99.49;99938.09;6094884;19;20109;-70
2023/08/02 02:12:14;;;;;;;11.13;3.55;;;;;;;15.71;99.89;99933.38;6094538;19;20156;-70
2023/08/02 02:14:18;;;;;;;13.23;4.72;;;;;;;15.72;99.73;99927.13;6092670;19;20021;-71
2023/08/02 02:16:21;;;;;;;14.82;3.72;;;;;;;15.68;100.00;99921.19;6092835;19;20015;-70
2023/08/02 02:18:26;;;;;;;12.60;4.05;;;;;;;15.68;100.00;99918.53;6093955;19;20094;-70
2023/08/02 02:20:33;;;;;;;8.98;3.45;;;;;;;15.65;100.00;99905.53;6096239;19;20010;-71
2023/08/02 02:22:39;;;;;;;10.10;3.38;;;;;;;15.67;100.00;99892.19;6094048;19;20025;-71
2023/08/02 02:24:44;;;;;;;8.82;3.60;;;;;;;15.70;99.85;99894.63;6090256;19;20010;-71
2023/08/02 02:26:51;;;;;;;9.80;4.18;;;;;;;15.62;100.00;99895.19;6094337;19;20038;-71
2023/08/02 02:28:56;;;;;;;8.60;4.03;;;;;;;15.58;100.00;99888.41;6096134;19;20002;-71
2023/08/02 02:31:01;;;;;;;11.23;3.85;;;;;;;15.58;100.00;99878.66;6092367;19;20006;-70
2023/08/02 02:33:07;;;;;;;8.57;3.55;;;;;;;15.57;100.00;99884.09;6096889;19;20007;-70
2023/08/02 02:35:13;;;;;;;8.82;3.65;;;;;;;15.61;100.00;99877.56;6103711;19;20014;-71
2023/08/02 02:37:18;;;;;;;12.32;4.20;;;;;;;15.54;100.00;99887.81;6105618;19;20352;-72
2023/08/02 02:39:23;;;;;;;10.93;3.70;;;;;;;15.55;100.00;99880.72;6100177;19;20054;-70
2023/08/02 02:41:28;;;;;;;10.52;4.15;;;;;;;15.51;100.00;99871.31;6098234;19;20014;-70
2023/08/02 02:43:38;;;;;;;13.30;4.32;;;;;;;15.52;100.00;99886.25;6100019;19;20499;-71
2023/08/02 02:45:43;;;;;;;9.20;3.70;;;;;;;15.57;100.00;99882.28;6099370;19;20423;-72
2023/08/02 02:47:48;;;;;;;11.98;3.67;;;;;;;15.55;100.00;99878.91;6101266;19;20078;-71
2023/08/02 02:49:55;;;;;;;10.95;3.47;;;;;;;15.51;100.00;99881.91;6098991;19;20010;-71
2023/08/02 02:52:00;;;;;;;10.60;3.45;;;;;;;15.48;100.00;99883.00;6102618;19;20452;-72
2023/08/02 02:54:11;;;;;;;9.18;3.25;;;;;;;15.57;100.00;99878.78;6098956;19;20390;-71
2023/08/02 02:56:16;;;;;;;12.45;4.38;;;;;;;15.57;100.00;99853.16;6101917;19;20014;-70
2023/08/02 02:58:21;;;;;;;8.43;3.97;;;;;;;15.55;100.00;99851.56;6104583;19;20006;-70
2023/08/02 03:00:31;;;;;;;11.80;3.88;;;;;;;15.57;100.00;99845.19;6099997;19;20012;-71
2023/08/02 03:02:36;;;;;;;9.50;3.70;;;;;;;15.63;100.00;99841.22;6101324;19;20013;-70
2023/08/02 03:04:41;;;;;;;8.63;3.70;;;;;;;15.56;100.00;99826.78;6105191;19;20007;-70
2023/08/02 03:06:46;;;;;;;11.55;3.50;;;;;;;15.61;100.00;99814.03;6101724;19;20030;-71
2023/08/02 03:08:51;;;;;;;9.65;3.45;;;;;;;15.57;100.00;99810.78;6105404;19;20471;-70
2023/08/02 03:10:56;;;;;;;12.40;3.72;;;;;;;15.58;100.00;99799.22;6100953;19;20017;-71
2023/08/02 03:13:01;;;;;;;9.63;3.88;;;;;;;15.62;100.00;99799.84;6089244;19;21320;-69
2023/08/02 03:15:07;;;;;;;10.98;3.97;;;;;;;15.60;100.00;99796.47;6100425;19;20007;-70
2023/08/02 03:17:14;;;;;;;9.68;3.65;;;;;;;15.71;100.00;99785.06;6104118;19;20011;-70
2023/08/02 03:19:19;;;;;;;11.30;3.97;;;;;;;15.72;100.00;99790.25;6097774;19;20026;-70
2023/08/02 03:21:30;;;;;;;9.45;3.33;;;;;;;15.66;100.00;99784.53;6101240;19;20006;-71
2023/08/02 03:23:36;;;;;;;11.90;3.42;;;;;;;15.67;100.00;99781.78;6102600;19;20024;-71
2023/08/02 03:25:41;;;;;;;12.05;4.15;;;;;;;15.60;100.00;99785.88;6095968;19;20022;-71
2023/08/02 03:27:46;;;;;;;11.88;5.05;;;;;;;15.57;100.00;99775.53;6103876;19;20014;-70
2023/08/02 03:29:52;;;;;;;13.90;4.72;;;;;;;15.58;100.00;99774.53;6101323;19;20018;-70
2023/08/02 03:32:00;;;;;;;12.02;4.07;;;;;;;15.53;100.00;99772.28;6101260;19;20007;-70
2023/08/02 03:34:07;;;;;;;9.35;3.22;;;;;;;15.55;100.00;99765.03;6096774;19;20042;-70
2023/08/02 03:36:12;;;;;;;7.65;3.55;;;;;;;15.59;100.00;99755.91;6094769;19;20085;-71
2023/08/02 03:38:17;;;;;;;13.57;4.15;;;;;;;15.61;100.00;99758.41;6100947;19;20049;-71
2023/08/02 03:40:23;;;;;;;10.27;3.72;;;;;;;15.69;100.00;99749.91;6103980;19;20495;-71
2023/08/02 03:42:28;;;;;;;14.68;4.68;;;;;;;15.66;100.00;99747.47;6099225;19;20025;-71
2023/08/02 03:44:33;;;;;;;11.70;4.07;;;;;;;15.57;100.00;99747.22;6102659;19;20003;-71
2023/08/02 03:46:38;;;;;;;12.88;4.63;;;;;;;15.54;100.00;99739.53;6099581;19;20010;-71
2023/08/02 03:48:47;;;;;;;14.85;5.82;;;;;;;15.55;100.00;99735.06;6101526;19;20011;-71
2023/08/02 03:50:54;;;;;;;14.20;5.60;;;;;;;15.50;100.00;99729.28;6100693;19;20034;-71
2023/08/02 03:53:01;;;;;;;13.93;6.03;;;;;;;15.58;100.00;99724.22;6073744;19;20285;-70
2023/08/02 03:55:09;;;;;;;17.50;6.25;;;;;;;15.62;100.00;99720.38;6099650;19;20042;-72
2023/08/02 03:57:14;;;;;;;16.50;6.93;;;;;;;15.69;100.00;99718.09;6098118;19;20018;-72
2023/08/02 03:59:18;;;;;;;17.73;7.03;;;;;;;15.58;100.00;99711.81;6098566;19;20023;-71
2023/08/02 04:01:24;;;;;;;15.85;6.68;;;;;;;15.60;100.00;99701.13;6100514;19;20031;-72
2023/08/02 04:03:26;;;;;;;14.55;6.50;;;;;;;15.71;100.00;99714.38;6097881;19;20538;-70
2023/08/02 04:05:32;;;;;;;17.33;8.35;;;;;;;15.58;100.00;99708.34;6101502;19;20070;-71
2023/08/02 04:07:46;;;;;;;15.40;6.65;;;;;;;15.64;100.00;99699.06;6100874;19;20467;-71
2023/08/02 04:09:53;;;;;;;14.25;7.20;;;;;;;15.57;100.00;99688.97;6102461;19;20012;-70
2023/08/02 04:12:01;;;;;;;15.05;6.32;;;;;;;15.56;100.00;99683.78;6090589;19;20006;-70
2023/08/02 04:14:07;;;;;;;10.13;4.70;;;;;;;15.56;100.00;99681.13;6099616;19;20034;-72
2023/08/02 04:16:14;;;;;;;12.15;5.55;;;;;;;15.68;100.00;99676.69;6101106;19;20010;-70
2023/08/02 04:18:19;;;;;;;17.45;5.45;;;;;;;15.54;100.00;99669.84;6104281;19;20358;-72
2023/08/02 04:20:24;;;;;;;12.02;4.97;;;;;;;15.49;100.00;99666.72;6104700;19;20039;-71
2023/08/02 04:22:31;;;;;;;13.60;4.43;;;;;;;15.46;100.00;99654.56;6100287;19;20109;-72
2023/08/02 04:24:39;;;;;;;14.52;5.05;;;;;;;15.48;100.00;99649.13;6110805;19;20279;-70
2023/08/02 04:26:43;;;;;;;10.80;4.68;;;;;;;15.54;100.00;99646.03;6105476;19;20003;-69
2023/08/02 04:28:50;;;;;;;9.82;4.05;;;;;;;15.48;100.00;99633.25;6104928;19;20017;-70
2023/08/02 04:30:52;;;;;;;10.07;3.88;;;;;;;15.49;100.00;99629.66;6114848;19;20007;-70
2023/08/02 04:32:58;;;;;;;9.35;4.63;;;;;;;15.45;100.00;99623.75;6113124;19;20006;-71
2023/08/02 04:35:03;;;;;;;10.68;4.10;;;;;;;15.51;100.00;99623.28;6111182;19;20016;-71
2023/08/02 04:37:08;;;;;;;10.05;4.60;;;;;;;15.40;100.00;99607.38;6109372;19;20010;-70
2023/08/02 04:39:16;;;;;;;13.60;4.63;;;;;;;15.43;100.00;99606.31;6104083;19;20038;-70
2023/08/02 04:41:23;;;;;;;11.02;4.65;;;;;;;15.50;100.00;99607.50;6104602;19;20034;-71
2023/08/02 04:43:28;;;;;;;12.57;4.70;;;;;;;15.52;100.00;99598.47;6105275;19;20015;-70
2023/08/02 04:45:34;;;;;;;8.02;3.53;;;;;;;15.44;100.00;99582.38;6076454;19;20002;-71
2023/08/02 04:47:41;;;;;;;11.07;4.90;;;;;;;15.52;100.00;99576.44;6099016;19;20007;-72
2023/08/02 04:49:46;;;;;;;9.48;3.95;;;;;;;15.53;100.00;99575.47;6096731;19;20002;-72
2023/08/02 04:51:51;;;;;;;10.00;4.60;;;;;;;15.46;100.00;99576.97;6098859;19;20027;-71
2023/08/02 04:53:56;;;;;;;10.38;4.30;;;;;;;15.32;100.00;99565.69;6093665;19;20944;-71
2023/08/02 04:56:01;;;;;;;9.40;4.30;;;;;;;15.37;100.00;99570.59;6097534;19;20020;-71
2023/08/02 04:58:06;;;;;;;7.82;4.00;;;;;;;15.39;100.00;99559.88;6101861;19;20655;-70
2023/08/02 05:00:12;;;;;;;12.18;4.10;;;;;;;15.38;100.00;99548.47;6091582;19;20027;-70
2023/08/02 05:02:18;;;;;;;11.57;4.57;;;;;;;15.40;100.00;99540.38;6101842;19;20007;-70
2023/08/02 05:04:22;;;;;;;13.85;4.75;;;;;;;15.44;100.00;99528.59;6096675;19;20011;-71
2023/08/02 05:06:32;;;;;;;10.55;4.20;;;;;;;15.42;100.00;99522.56;6099679;19;20006;-72
2023/08/02 05:08:39;;;;;;;9.18;4.30;;;;;;;15.47;100.00;99513.28;6101121;19;20445;-71
2023/08/02 05:10:44;;;;;;;12.32;4.65;;;;;;;15.31;100.00;99497.81;6099887;19;20010;-72
2023/08/02 05:12:49;;;;;;;14.30;4.63;;;;;;;15.40;100.00;99495.38;6101496;19;20502;-70
2023/08/02 05:14:59;;;;;;;10.73;4.20;;;;;;;15.35;100.00;99493.97;6101282;19;20503;-71
2023/08/02 05:17:07;;;;;;;10.70;4.28;;;;;;;15.37;100.00;99480.59;6088513;19;20005;-72
2023/08/02 05:19:12;;;;;;;9.27;4.10;;;;;;;15.35;100.00;99480.72;6095089;19;20010;-73
2023/08/02 05:21:19;;;;;;;11.40;4.85;;;;;;;15.39;100.00;99476.00;6097224;19;20014;-71
2023/08/02 05:23:26;;;;;;;12.70;4.93;;;;;;;15.38;100.00;99477.00;6099945;19;20334;-71
2023/08/02 05:25:35;;;;;;;12.88;4.60;;;;;;;15.38;100.00;99474.34;6096754;19;20412;-73
2023/08/02 05:27:40;;;;;;;11.63;4.80;;;;;;;15.41;100.00;99465.31;6096068;19;20014;-73
2023/08/02 05:29:45;;;;;;;11.63;4.97;;;;;;;15.43;100.00;99464.22;6099169;19;20028;-72
2023/08/02 05:31:53;;;;;;;10.77;4.22;;;;;;;15.44;100.00;99460.59;6094741;19;20018;-73
2023/08/02 05:33:58;;;;;;;10.02;4.32;;;;;;;15.36;100.00;99463.03;6098099;19;20521;-73
2023/08/02 05:36:03;;;;;;;11.73;4.60;;;;;;;15.49;100.00;99457.56;6096793;19;20109;-74
2023/08/02 05:38:10;;;;;;;9.48;4.22;;;;;;;15.50;100.00;99452.13;6094748;19;20487;-72
2023/08/02 05:40:19;;;;;;;11.77;5.28;;;;;;;15.49;100.00;99449.63;6096255;19;20592;-75
2023/08/02 05:42:24;;;;;;;9.32;4.07;;;;;;;15.41;100.00;99447.63;6099826;19;20010;-72
2023/08/02 05:44:29;;;;;;;9.35;4.47;;;;;;;15.43;100.00;99447.47;6097218;19;20003;-72
2023/08/02 05:46:34;;;;;;;10.80;4.72;;;;;;;15.34;100.00;99431.38;6098595;19;20416;-73
2023/08/02 05:48:44;;;;;;;10.50;4.55;;;;;;;15.44;100.00;99435.94;6096454;19;20003;-73
2023/08/02 05:50:49;;;;;;;10.35;4.57;;;;;;;15.39;100.00;99423.06;6096297;19;19998;-73
2023/08/02 05:52:54;;;;;;;7.47;3.80;;;;;;;15.42;100.00;99422.81;6093957;19;20011;-73
2023/08/02 05:54:59;;;;;;;10.07;4.18;;;;;;;15.43;100.00;99415.69;6097274;19;20014;-72
2023/08/02 05:57:04;;;;;;;11.80;4.30;;;;;;;15.37;100.00;99412.59;6084818;19;20010;-72
2023/08/02 05:59:09;;;;;;;10.68;4.60;;;;;;;15.39;100.00;99409.00;6094324;19;20002;-72
2023/08/02 06:01:14;;;;;;;9.07;3.78;;;;;;;15.37;100.00;99406.47;6092265;19;20010;-72
2023/08/02 06:03:19;;;;;;;8.90;3.95;;;;;;;15.31;100.00;99399.88;6095747;19;20362;-72
2023/08/02 06:05:27;;;;;;;10.05;4.07;;;;;;;15.36;100.00;99388.91;6096095;19;20046;-73
2023/08/02 06:07:35;;;;;;;8.85;3.80;;;;;;;15.41;100.00;99393.84;6097742;19;20049;-73
2023/08/02 06:09:41;;;;;;;8.52;4.15;;;;;;;15.37;100.00;99388.78;6103467;19;20006;-72
2023/08/02 06:11:46;;;;;;;10.68;4.65;;;;;;;15.30;100.00;99377.03;6098516;19;20007;-73
2023/08/02 06:13:51;;;;;;;7.30;3.03;;;;;;;15.48;100.00;99379.97;6105831;19;20007;-72
2023/08/02 06:15:56;;;;;;;7.15;3.55;;;;;;;15.39;100.00;99359.53;6103399;19;20010;-72
2023/08/02 06:18:01;;;;;;;7.60;3.38;;;;;;;15.44;100.00;99354.69;6100112;19;20333;-72
2023/08/02 06:20:10;;;;;;;5.22;3.00;;;;;;;15.46;100.00;99342.19;6101222;19;20003;-72
2023/08/02 06:22:17;;;;;;;8.13;3.55;;;;;;;15.45;100.00;99340.47;6100599;19;20066;-73
2023/08/02 06:24:26;;;;;;;10.10;3.90;;;;;;;15.39;100.00;99332.25;6105128;19;20470;-73
2023/08/02 06:26:32;;;;;;;6.07;2.78;;;;;;;15.42;100.00;99324.03;6082151;19;20311;-75
2023/08/02 06:28:38;;;;;;;6.05;2.55;;;;;;;15.36;100.00;99315.63;6081520;19;20021;-73
2023/08/02 06:30:42;;;;;;;7.20;2.78;;;;;;;15.35;100.00;99311.31;6097629;19;20023;-73
2023/08/02 06:32:47;;;;;;;7.78;2.90;;;;;;;15.41;100.00;99309.97;6087423;19;20018;-72
2023/08/02 06:34:52;;;;;;;4.50;2.47;;;;;;;15.38;100.00;99310.22;6094894;19;20399;-72
2023/08/02 06:37:03;;;;;;;6.28;2.60;;;;;;;15.52;100.00;99291.34;6101440;19;20006;-73
2023/08/02 06:39:13;;;;;;;4.53;2.53;;;;;;;15.55;100.00;99300.84;6097544;19;20080;-73
2023/08/02 06:41:18;;;;;;;3.80;1.98;;;;;;;15.59;100.00;99291.66;6104331;19;20017;-73
2023/08/02 06:43:23;;;;;;;4.32;2.15;;;;;;;15.57;100.00;99293.59;6103068;19;20020;-73
2023/08/02 06:45:28;;;;;;;4.15;2.00;;;;;;;15.63;100.00;99293.06;6101948;19;20015;-74
2023/08/02 06:47:33;;;;;;;3.25;2.00;;;;;;;15.66;100.00;99282.22;6100982;19;20459;-72
2023/08/02 06:49:38;;;;;;;3.00;1.77;;;;;;;15.67;100.00;99270.66;6093293;19;20082;-72
2023/08/02 06:51:41;;;;;;;5.20;2.53;;;;;;;15.67;100.00;99273.31;6098574;19;20487;-73
2023/08/02 06:53:46;;;;;;;3.55;2.10;;;;;;;15.72;100.00;99262.34;6101417;19;20010;-74
2023/08/02 06:55:53;;;;;;;3.53;2.00;;;;;;;15.70;100.00;99254.53;6099436;19;20002;-74
2023/08/02 06:57:58;;;;;;;4.25;2.00;;;;;;;15.69;100.00;99249.34;6091507;19;20010;-72
2023/08/02 07:00:05;;;;;;;3.45;1.98;;;;;;;15.68;100.00;99226.47;6089089;19;20549;-74
2023/08/02 07:02:14;;;;;;;3.03;1.75;;;;;;;15.73;100.00;99224.28;6094609;19;20022;-73
2023/08/02 07:04:19;;;;;;;4.70;2.05;;;;;;;15.74;100.00;99226.78;6098804;19;20010;-72
2023/08/02 07:06:25;;;;;;;5.68;2.30;;;;;;;15.73;100.00;99214.53;6094318;19;20014;-73
2023/08/02 07:08:30;;;;;;;3.92;1.75;;;;;;;15.77;100.00;99212.44;6098830;19;20023;-72
2023/08/02 07:10:35;;;;;;;4.03;2.10;;;;;;;15.85;100.00;99211.78;6085308;19;20038;-71
2023/08/02 07:12:40;;;;;;;3.65;2.03;;;;;;;15.85;100.00;99196.75;6089875;19;20026;-73
2023/08/02 07:14:45;;;;;;;2.67;1.80;;;;;;;15.89;100.00;99192.00;6097830;19;20014;-73
2023/08/02 07:16:50;;;;;;;3.22;1.90;;;;;;;15.92;100.00;99189.91;6104235;19;20002;-72
2023/08/02 07:18:55;;;;;;;3.03;1.58;;;;;;;15.91;100.00;99176.81;6103403;19;20089;-73
2023/08/02 07:21:06;;;;;;;3.78;2.00;;;;;;;15.92;100.00;99178.47;6095829;19;20345;-70
2023/08/02 07:23:11;;;;;;;1.92;1.40;;;;;;;15.98;100.00;99164.66;6099547;19;20094;-72
2023/08/02 07:25:16;;;;;;;3.05;1.60;;;;;;;15.94;100.00;99163.28;6105982;19;20015;-72
2023/08/02 07:27:23;;;;;;;3.42;1.75;;;;;;;16.01;100.00;99167.06;6096705;19;20011;-72
2023/08/02 07:29:33;;;;;;;2.17;1.40;;;;;;;16.01;100.00;99148.53;6100312;19;20031;-72
2023/08/02 07:31:38;;;;;;;2.63;1.63;;;;;;;16.01;100.00;99153.81;6098159;19;20010;-70
2023/08/02 07:33:45;;;;;;;2.65;1.70;;;;;;;15.95;100.00;99154.34;6102961;19;20011;-75
2023/08/02 07:35:50;;;;;;;1.35;1.27;;;;;;;15.95;100.00;99159.66;6103453;19;20027;-73
2023/08/02 07:37:55;;;;;;;1.42;1.27;;;;;;;15.98;100.00;99159.38;6104472;19;20014;-72
2023/08/02 07:40:00;;;;;;;2.33;1.33;;;;;;;15.94;100.00;99142.91;6107781;19;20097;-72
2023/08/02 07:42:05;;;;;;;2.42;1.60;;;;;;;15.96;100.00;99145.44;6106817;19;20462;-71
2023/08/02 07:44:10;;;;;;;2.88;1.70;;;;;;;16.01;100.00;99145.88;6104973;19;20018;-71
2023/08/02 07:46:22;;;;;;;2.88;1.70;;;;;;;16.05;100.00;99143.75;6105825;19;20023;-72
2023/08/02 07:48:27;;;;;;;1.45;1.38;;;;;;;15.90;100.00;99130.91;6109729;19;20014;-72
2023/08/02 07:50:33;;;;;;;2.78;1.85;;;;;;;16.04;100.00;99131.50;6108272;19;20081;-71
2023/08/02 07:52:42;;;;;;;4.15;1.70;;;;;;;16.05;100.00;99134.00;6101065;19;20023;-71
2023/08/02 07:54:45;;;;;;;1.45;1.33;;;;;;;15.98;100.00;99127.56;6103121;19;20010;-74
2023/08/02 07:56:59;;;;;;;2.77;1.70;;;;;;;15.95;100.00;99134.00;6108583;19;20006;-73
2023/08/02 07:59:04;;;;;;;3.00;1.58;;;;;;;16.01;100.00;99129.97;6103580;19;20007;-74
2023/08/02 08:01:10;;;;;;;2.00;1.30;;;;;;;16.07;100.00;99136.53;6103489;19;20014;-71
2023/08/02 08:03:18;;;;;;;2.63;1.65;;;;;;;16.05;100.00;99134.00;6101496;19;20382;-72
2023/08/02 08:05:25;;;;;;;2.60;1.80;;;;;;;16.10;100.00;99121.19;6104375;19;20034;-73
2023/08/02 08:07:30;;;;;;;1.85;1.73;;;;;;;16.16;100.00;99107.34;6103798;19;20090;-73
2023/08/02 08:09:35;;;;;;;2.05;1.55;;;;;;;16.23;100.00;99105.00;6096304;19;20082;-75
2023/08/02 08:11:40;;;;;;;2.30;1.58;;;;;;;16.22;100.00;99103.34;6102364;19;20007;-76
2023/08/02 08:13:46;;;;;;;3.78;2.00;;;;;;;16.27;100.00;99105.53;6103337;19;20048;-75
2023/08/02 08:15:51;;;;;;;2.80;2.00;;;;;;;16.23;100.00;99108.47;6102481;19;20006;-72
2023/08/02 08:17:55;;;;;;;2.28;1.63;;;;;;;16.33;100.00;99094.38;6104594;19;20023;-74
2023/08/02 08:20:06;;;;;;;3.28;1.80;;;;;;;16.45;100.00;99087.94;6101650;19;20478;-73
2023/08/02 08:22:11;;;;;;;3.25;1.85;;;;;;;16.59;100.00;99092.81;6101825;19;20021;-73
2023/08/02 08:24:16;;;;;;;3.60;2.20;;;;;;;16.71;100.00;99080.19;6098875;19;20365;-74
2023/08/02 08:26:22;;;;;;;3.20;1.98;;;;;;;16.87;100.00;99082.25;6092771;19;20344;-74
2023/08/02 08:28:28;;;;;;;2.30;2.00;;;;;;;17.07;100.00;99080.38;6101089;19;20038;-74
2023/08/02 08:30:33;;;;;;;4.15;2.20;;;;;;;17.23;100.00;99074.44;6098520;19;20478;-72
2023/08/02 08:32:38;;;;;;;3.45;2.05;;;;;;;17.26;100.00;99060.84;6094651;19;20015;-73
2023/08/02 08:34:43;;;;;;;2.42;1.90;;;;;;;17.40;100.00;99060.34;6098419;19;20015;-73
2023/08/02 08:36:50;;;;;;;4.18;2.72;;;;;;;17.37;100.00;99067.78;6080146;19;20006;-73
2023/08/02 08:38:55;;;;;;;3.33;2.22;;;;;;;17.72;100.00;99051.88;6100486;19;20581;-73
2023/08/02 08:41:02;;;;;;;4.22;2.30;;;;;;;17.89;100.00;99060.03;6100293;19;20066;-72
2023/08/02 08:43:07;;;;;;;3.42;2.10;;;;;;;17.93;100.00;99053.41;6101593;19;20305;-72
2023/08/02 08:45:13;;;;;;;3.70;2.22;;;;;;;18.04;100.00;99044.41;6102142;19;20027;-73
2023/08/02 08:47:19;;;;;;;4.53;2.58;;;;;;;18.01;100.00;99047.34;6101260;19;20074;-73
2023/08/02 08:49:24;;;;;;;5.07;2.45;;;;;;;17.76;100.00;99045.28;6100970;19;20483;-74
2023/08/02 08:51:31;;;;;;;4.15;2.50;;;;;;;17.76;100.00;99047.09;6099340;19;20050;-72
2023/08/02 08:53:43;;;;;;;3.58;2.25;;;;;;;17.72;100.00;99046.56;6089082;19;20442;-74
2023/08/02 08:55:51;;;;;;;4.28;2.40;;;;;;;17.66;100.00;99046.34;6098829;19;20003;-72
2023/08/02 08:57:56;;;;;;;3.25;2.45;;;;;;;17.67;100.00;99037.41;6103004;19;20037;-73
2023/08/02 09:00:10;;;;;;;5.22;2.72;;;;;;;17.72;100.00;99038.59;6102409;19;20459;-74
2023/08/02 09:02:16;;;;;;;4.20;2.65;;;;;;;17.76;100.00;99039.13;6098531;19;20664;-73
2023/08/02 09:04:22;;;;;;;5.60;3.00;;;;;;;17.86;100.00;99039.09;6103129;19;20646;-72
2023/08/02 09:06:28;;;;;;;5.38;2.90;;;;;;;18.12;100.00;99037.31;6101308;19;20025;-73
2023/08/02 09:08:45;;;;;;;4.93;2.53;;;;;;;18.35;100.00;99029.66;6093387;19;20010;-72
2023/08/02 09:10:47;;;;;;;5.30;2.85;;;;;;;18.56;100.00;99023.13;6099446;19;20030;-72
2023/08/02 09:12:52;;;;;;;5.22;2.90;;;;;;;18.72;100.00;99028.56;6103490;19;20010;-72
2023/08/02 09:15:05;;;;;;;4.55;3.15;;;;;;;18.68;100.00;99026.34;6101742;19;20014;-72
2023/08/02 09:17:09;;;;;;;3.50;2.60;;;;;;;18.74;100.00;99017.72;6099566;19;20336;-71
2023/08/02 09:19:24;;;;;;;4.13;2.90;;;;;;;18.85;100.00;99014.81;6103727;19;20078;-72
2023/08/02 09:21:30;;;;;;;4.80;2.75;;;;;;;19.00;100.00;99007.88;6103863;19;20082;-71
2023/08/02 09:23:33;;;;;;;4.85;2.97;;;;;;;19.08;100.00;99009.75;6106091;19;20026;-71
2023/08/02 09:25:40;;;;;;;6.57;3.53;;;;;;;19.29;100.00;99007.47;6096675;19;20007;-72
2023/08/02 09:27:49;;;;;;;4.78;2.60;;;;;;;19.33;100.00;98993.84;6100342;19;20018;-72
2023/08/02 09:29:55;;;;;;;5.30;2.40;;;;;;;19.38;100.00;98997.69;6103249;19;20479;-71
2023/08/02 09:32:00;;;;;;;7.43;3.00;;;;;;;19.50;100.00;99006.19;6097210;19;20557;-71
2023/08/02 09:34:08;;;;;;;4.78;2.58;;;;;;;19.56;99.24;98992.19;6101509;19;20018;-70
2023/08/02 09:36:12;;;;;;;7.95;2.42;;;;;;;19.68;99.16;99001.56;6071448;19;20006;-72
2023/08/02 09:38:18;;;;;;;4.43;2.00;;;;;;;19.67;97.59;99010.59;6095503;19;20014;-72
2023/08/02 09:40:35;;;;;;;3.40;2.00;;;;;;;19.55;98.61;98998.53;6102611;19;20015;-70
2023/08/02 09:43:03;;;;;;;5.38;2.67;;;;;;;19.50;98.52;99008.84;6101334;19;20003;-72
2023/08/02 09:45:10;;;;;;;4.15;2.03;;;;;;;19.47;98.79;99007.34;6098491;19;20007;-69
2023/08/02 09:47:15;;;;;;;2.70;1.80;;;;;;;19.39;99.21;99015.31;6107826;19;20027;-71
2023/08/02 09:49:22;;;;;;;2.67;1.95;;;;;;;19.22;100.00;99022.47;6105535;19;22781;-74
2023/08/02 09:51:41;;;;;;;7.30;3.00;;;;;;;18.97;100.00;99023.34;6107396;19;20292;-73
2023/08/02 09:53:55;;;;;;;7.05;2.60;;;;;;;19.01;99.29;99022.03;6103259;19;20085;-73
2023/08/02 09:56:05;;;;;;;4.75;2.30;;;;;;;19.08;100.00;99001.75;6101545;19;20003;-73
2023/08/02 09:58:15;;;;;;;7.00;2.42;;;;;;;19.19;98.78;99017.44;6107218;19;20010;-73